createdAt,value
2019-05-06T00:00:27.099Z,97907.00
2019-05-06T00:02:56.541Z,97890.00
2019-05-06T00:05:25.983Z,97892.00
2019-05-06T00:07:55.502Z,97892.00
2019-05-06T00:10:34.640Z,97895.00
2019-05-06T00:13:04.750Z,97907.00
2019-05-06T00:15:34.539Z,97887.00
2019-05-06T00:18:04.871Z,97889.00
2019-05-06T00:20:35.332Z,97883.00
2019-05-06T00:23:09.218Z,97908.00
2019-05-06T00:25:55.298Z,97902.00
2019-05-06T00:28:29.159Z,97887.00
2019-05-06T00:31:12.237Z,97884.00
2019-05-06T00:33:31.298Z,97903.00
2019-05-06T00:36:00.698Z,97886.00
2019-05-06T00:38:33.477Z,97896.00
2019-05-06T00:41:06.953Z,97893.00
2019-05-06T00:43:36.322Z,97890.00
2019-05-06T00:46:05.861Z,97900.00
2019-05-06T00:48:35.234Z,97898.00
2019-05-06T00:51:04.754Z,97897.00
2019-05-06T00:53:35.888Z,97893.00
2019-05-06T00:56:05.241Z,97885.00
2019-05-06T00:58:34.921Z,97891.00
2019-05-06T01:01:04.816Z,97892.00
2019-05-06T01:03:34.880Z,97888.00
2019-05-06T01:06:04.371Z,97895.00
2019-05-06T01:08:34.913Z,97891.00
2019-05-06T01:11:06.827Z,97901.00
2019-05-06T01:13:46.952Z,97882.00
2019-05-06T01:16:18.038Z,97881.00
2019-05-06T01:18:47.411Z,97892.00
2019-05-06T01:21:16.805Z,97892.00
2019-05-06T01:23:46.689Z,97888.00
2019-05-06T01:26:17.064Z,97890.00
2019-05-06T01:28:47.083Z,97899.00
2019-05-06T01:31:16.743Z,97895.00
2019-05-06T01:33:46.191Z,97897.00
2019-05-06T01:36:15.649Z,97891.00
2019-05-06T01:38:46.953Z,97895.00
2019-05-06T01:41:17.960Z,97895.00
2019-05-06T01:43:47.402Z,97890.00
2019-05-06T01:46:16.772Z,97897.00
2019-05-06T01:48:49.277Z,97901.00
2019-05-06T01:51:21.383Z,97891.00
2019-05-06T02:14:27.120Z,97921.00
2019-05-06T02:16:56.496Z,97926.00
2019-05-06T02:19:26.717Z,97914.00
2019-05-06T02:21:57.732Z,97924.00
2019-05-06T02:24:44.061Z,97914.00
2019-05-06T02:27:13.996Z,97924.00
2019-05-06T02:30:05.380Z,97929.00
2019-05-06T02:32:36.165Z,97930.00
2019-05-06T02:35:08.340Z,97919.00
2019-05-06T02:37:39.264Z,97921.00
2019-05-06T02:40:29.843Z,97926.00
2019-05-06T02:43:02.956Z,97927.00
2019-05-06T02:45:33.190Z,97917.00
2019-05-06T02:48:13.728Z,97918.00
2019-05-06T02:50:45.118Z,97928.00
2019-05-06T02:53:16.106Z,97926.00
2019-05-06T02:55:45.549Z,97917.00
2019-05-06T02:58:15.170Z,97916.00
2019-05-06T03:00:45.028Z,97916.00
2019-05-06T03:03:14.462Z,97905.00
2019-05-06T03:05:44.253Z,97913.00
2019-05-06T03:08:13.813Z,97905.00
2019-05-06T03:10:44.288Z,97911.00
2019-05-06T03:13:14.530Z,97910.00
2019-05-06T03:15:44.152Z,97925.00
2019-05-06T03:18:14.822Z,97907.00
2019-05-06T03:20:59.378Z,97906.00
2019-05-06T03:23:45.220Z,97906.00
2019-05-06T03:26:14.591Z,97902.00
2019-05-06T03:28:44.307Z,97895.00
2019-05-06T03:31:16.340Z,97902.00
2019-05-06T03:34:03.633Z,97916.00
2019-05-06T03:36:25.059Z,97917.00
2019-05-06T03:38:47.505Z,97913.00
2019-05-06T03:41:16.855Z,97910.00
2019-05-06T03:43:46.223Z,97906.00
2019-05-06T03:46:17.237Z,97899.00
2019-05-06T03:48:48.225Z,97906.00
2019-05-06T03:51:17.589Z,97901.00
2019-05-06T03:53:47.093Z,97909.00
2019-05-06T03:56:19.903Z,97914.00
2019-05-06T03:58:53.686Z,97911.00
2019-05-06T04:01:24.239Z,97909.00
2019-05-06T04:03:57.333Z,97910.00
2019-05-06T04:06:25.933Z,97914.00
2019-05-06T04:08:56.756Z,97903.00
2019-05-06T04:11:27.263Z,97927.00
2019-05-06T04:13:57.914Z,97907.00
2019-05-06T04:16:33.767Z,97916.00
2019-05-06T04:19:17.680Z,97920.00
2019-05-06T04:21:48.776Z,97919.00
2019-05-06T04:24:29.166Z,97917.00
2019-05-06T04:27:24.178Z,97928.00
2019-05-06T04:29:54.570Z,97909.00
2019-05-06T04:32:24.429Z,97922.00
2019-05-06T04:34:54.996Z,97919.00
2019-05-06T04:37:24.501Z,97932.00
2019-05-06T04:39:53.906Z,97938.00
2019-05-06T04:42:26.864Z,97933.00
2019-05-06T04:44:54.419Z,97935.00
2019-05-06T04:47:24.299Z,97933.00
2019-05-06T04:49:54.171Z,97932.00
2019-05-06T04:52:26.015Z,97932.00
2019-05-06T04:54:54.621Z,97925.00
2019-05-06T04:57:24.152Z,97943.00
2019-05-06T04:59:54.364Z,97937.00
2019-05-06T05:02:23.847Z,97931.00
2019-05-06T05:04:53.988Z,97927.00
2019-05-06T05:07:23.342Z,97933.00
2019-05-06T05:09:54.510Z,97921.00
2019-05-06T05:12:28.751Z,97930.00
2019-05-06T05:15:03.348Z,97929.00
2019-05-06T05:17:34.778Z,97928.00
2019-05-06T05:20:06.568Z,97934.00
2019-05-06T05:22:36.521Z,97928.00
2019-05-06T05:25:07.582Z,97935.00
2019-05-06T05:27:36.937Z,97938.00
2019-05-06T05:30:07.646Z,97944.00
2019-05-06T05:32:37.189Z,97946.00
2019-05-06T05:35:07.469Z,97945.00
2019-05-06T05:37:36.957Z,97942.00
2019-05-06T05:40:06.886Z,97953.00
2019-05-06T05:42:46.830Z,97961.00
2019-05-06T05:45:16.442Z,97956.00
2019-05-06T05:47:46.850Z,97959.00
2019-05-06T05:50:19.735Z,97949.00
2019-05-06T05:52:51.816Z,97948.00
2019-05-06T05:55:21.892Z,97959.00
2019-05-06T05:57:51.906Z,97963.00
2019-05-06T06:00:23.039Z,97966.00
2019-05-06T06:02:53.112Z,97962.00
2019-05-06T06:05:22.503Z,97970.00
2019-05-06T06:07:53.018Z,97958.00
2019-05-06T06:10:24.354Z,97972.00
2019-05-06T06:12:55.048Z,97965.00
2019-05-06T06:15:44.382Z,97956.00
2019-05-06T06:18:24.578Z,97973.00
2019-05-06T06:20:55.685Z,97969.00
2019-05-06T06:23:27.217Z,97952.00
2019-05-06T06:25:57.151Z,97960.00
2019-05-06T06:28:26.687Z,97958.00
2019-05-06T06:31:02.885Z,97961.00
2019-05-06T06:33:32.959Z,97956.00
2019-05-06T06:36:15.968Z,97956.00
2019-05-06T06:38:56.000Z,97959.00
2019-05-06T06:41:25.382Z,97958.00
2019-05-06T06:43:56.383Z,97962.00
2019-05-06T06:46:25.729Z,97970.00
2019-05-06T06:48:55.713Z,97960.00
2019-05-06T06:51:25.265Z,97955.00
2019-05-06T06:53:55.525Z,97960.00
2019-05-06T06:56:26.550Z,97969.00
2019-05-06T06:59:10.191Z,97966.00
2019-05-06T07:01:44.945Z,97964.00
2019-05-06T07:04:23.169Z,97963.00
2019-05-06T07:06:54.560Z,97967.00
2019-05-06T07:09:23.954Z,97968.00
2019-05-06T07:11:53.313Z,97967.00
2019-05-06T07:14:22.774Z,97962.00
2019-05-06T07:16:53.346Z,97952.00
2019-05-06T07:19:24.490Z,97962.00
2019-05-06T07:21:58.687Z,97958.00
2019-05-06T07:24:28.123Z,97962.00
2019-05-06T07:27:03.003Z,97965.00
2019-05-06T07:29:32.818Z,97956.00
2019-05-06T07:32:02.751Z,97964.00
2019-05-06T07:34:32.319Z,97975.00
2019-05-06T07:37:03.503Z,97972.00
2019-05-06T07:39:33.432Z,97954.00
2019-05-06T07:42:04.555Z,97956.00
2019-05-06T07:44:53.036Z,97953.00
2019-05-06T07:47:42.767Z,97957.00
2019-05-06T07:50:13.282Z,97972.00
2019-05-06T07:52:44.222Z,97958.00
2019-05-06T07:55:13.664Z,97966.00
2019-05-06T07:57:43.385Z,97962.00
2019-05-06T08:00:13.163Z,97975.00
2019-05-06T08:02:42.662Z,97974.00
2019-05-06T08:05:12.714Z,97959.00
2019-05-06T08:07:42.945Z,97958.00
2019-05-06T08:10:13.610Z,97954.00
2019-05-06T08:12:43.008Z,97960.00
2019-05-06T08:15:12.763Z,97965.00
2019-05-06T08:17:42.641Z,97963.00
2019-05-06T08:20:13.118Z,97958.00
2019-05-06T08:22:49.876Z,97960.00
2019-05-06T08:25:19.243Z,97955.00
2019-05-06T08:27:49.625Z,97964.00
2019-05-06T08:30:19.595Z,97950.00
2019-05-06T08:32:48.956Z,97969.00
2019-05-06T08:35:18.692Z,97958.00
2019-05-06T08:37:49.820Z,97957.00
2019-05-06T08:40:22.743Z,97959.00
2019-05-06T08:42:53.190Z,97954.00
2019-05-06T08:45:22.622Z,97963.00
2019-05-06T08:47:52.349Z,97953.00
2019-05-06T08:50:35.753Z,97955.00
2019-05-06T08:53:24.260Z,97948.00
2019-05-06T08:55:55.229Z,97942.00
2019-05-06T08:58:26.539Z,97953.00
2019-05-06T09:01:02.805Z,97944.00
2019-05-06T09:03:32.754Z,97955.00
2019-05-06T09:06:03.190Z,97947.00
2019-05-06T09:08:32.794Z,97942.00
2019-05-06T09:11:03.072Z,97952.00
2019-05-06T09:13:32.743Z,97950.00
2019-05-06T09:16:02.585Z,97966.00
2019-05-06T09:18:32.899Z,97944.00
2019-05-06T09:21:02.936Z,97946.00
2019-05-06T09:23:32.765Z,97944.00
2019-05-06T09:26:03.708Z,97946.00
2019-05-06T09:28:37.413Z,97949.00
2019-05-06T09:31:14.691Z,97944.00
2019-05-06T09:33:45.705Z,97947.00
2019-05-06T09:36:15.084Z,97938.00
2019-05-06T09:38:44.468Z,97931.00
2019-05-06T09:41:14.464Z,97937.00
2019-05-06T09:43:43.884Z,97933.00
2019-05-06T09:46:13.276Z,97935.00
2019-05-06T09:49:00.414Z,97938.00
2019-05-06T09:51:32.366Z,97927.00
2019-05-06T09:54:04.070Z,97933.00
2019-05-06T09:56:47.414Z,97927.00
2019-05-06T09:59:16.851Z,97935.00
2019-05-06T10:01:46.582Z,97938.00
2019-05-06T10:04:16.329Z,97949.00
2019-05-06T10:06:56.485Z,97939.00
2019-05-06T10:09:16.951Z,97946.00
2019-05-06T10:11:46.886Z,97928.00
2019-05-06T10:14:16.326Z,97929.00
2019-05-06T10:16:45.767Z,97923.00
2019-05-06T10:19:15.211Z,97934.00
2019-05-06T10:21:44.591Z,97928.00
2019-05-06T10:24:13.959Z,97925.00
2019-05-06T10:26:47.475Z,97939.00
2019-05-06T10:29:32.513Z,97932.00
2019-05-06T10:32:06.042Z,97931.00
2019-05-06T10:34:35.432Z,97935.00
2019-05-06T10:37:27.924Z,97933.00
2019-05-06T10:40:16.928Z,97937.00
2019-05-06T10:42:53.624Z,97936.00
2019-05-06T10:45:32.459Z,97935.00
2019-05-06T10:48:02.695Z,97932.00
2019-05-06T10:50:33.784Z,97946.00
2019-05-06T10:53:07.748Z,97912.00
2019-05-06T10:55:38.848Z,97926.00
2019-05-06T10:58:09.403Z,97922.00
2019-05-06T11:00:38.912Z,97930.00
2019-05-06T11:03:14.979Z,97899.00
2019-05-06T11:05:44.819Z,97903.00
2019-05-06T11:08:14.425Z,97907.00
2019-05-06T11:10:45.490Z,97912.00
2019-05-06T11:13:15.621Z,97896.00
2019-05-06T11:15:45.060Z,97898.00
2019-05-06T11:18:14.562Z,97901.00
2019-05-06T11:20:44.233Z,97900.00
2019-05-06T11:23:14.392Z,97904.00
2019-05-06T11:25:44.058Z,97880.00
2019-05-06T11:28:34.868Z,97887.00
2019-05-06T11:31:04.384Z,97894.00
2019-05-06T11:33:35.375Z,97888.00
2019-05-06T11:36:06.444Z,97872.00
2019-05-06T11:38:36.145Z,97860.00
2019-05-06T11:41:05.523Z,97869.00
2019-05-06T11:43:34.892Z,97869.00
2019-05-06T11:46:04.279Z,97880.00
2019-05-06T11:48:33.649Z,97866.00
2019-05-06T11:51:04.661Z,97863.00
2019-05-06T11:53:34.060Z,97878.00
2019-05-06T11:56:03.504Z,97861.00
2019-05-06T11:58:42.843Z,97867.00
2019-05-06T12:01:16.516Z,97854.00
2019-05-06T12:03:45.881Z,97870.00
2019-05-06T12:06:15.690Z,97860.00
2019-05-06T12:08:45.048Z,97884.00
2019-05-06T12:11:14.424Z,97883.00
2019-05-06T12:13:45.116Z,97877.00
2019-05-06T12:16:14.542Z,97866.00
2019-05-06T12:18:43.955Z,97884.00
2019-05-06T12:21:18.911Z,97883.00
2019-05-06T12:23:45.103Z,97894.00
2019-05-06T12:26:14.545Z,97885.00
2019-05-06T12:28:43.943Z,97884.00
2019-05-06T12:31:13.375Z,97883.00
2019-05-06T12:33:47.111Z,97886.00
2019-05-06T12:36:20.958Z,97881.00
2019-05-06T12:39:08.768Z,97896.00
2019-05-06T12:41:55.900Z,97895.00
2019-05-06T12:44:25.329Z,97902.00
2019-05-06T12:47:13.420Z,97901.00
2019-05-06T12:49:42.966Z,97906.00
2019-05-06T12:52:12.491Z,97907.00
2019-05-06T12:54:42.892Z,97896.00
2019-05-06T12:57:12.776Z,97903.00
2019-05-06T12:59:42.717Z,97892.00
2019-05-06T13:02:13.208Z,97907.00
2019-05-06T13:04:55.157Z,97899.00
2019-05-06T13:07:15.590Z,97907.00
2019-05-06T13:09:46.289Z,97900.00
2019-05-06T13:12:17.295Z,97908.00
2019-05-06T13:14:46.676Z,97898.00
2019-05-06T13:17:17.759Z,97892.00
2019-05-06T13:19:47.121Z,97906.00
2019-05-06T13:22:18.233Z,97907.00
2019-05-06T13:24:47.680Z,97912.00
2019-05-06T13:27:20.312Z,97915.00
2019-05-06T13:29:49.688Z,97895.00
2019-05-06T13:32:20.721Z,97907.00
2019-05-06T13:34:52.486Z,97900.00
2019-05-06T13:37:22.945Z,97911.00
2019-05-06T13:39:53.343Z,97907.00
2019-05-06T13:42:24.318Z,97910.00
2019-05-06T13:44:53.676Z,97907.00
2019-05-06T13:47:41.126Z,97905.00
2019-05-06T13:50:12.339Z,97899.00
2019-05-06T13:52:43.319Z,97902.00
2019-05-06T13:55:13.124Z,97899.00
2019-05-06T13:57:42.995Z,97901.00
2019-05-06T14:00:14.095Z,97897.00
2019-05-06T14:02:47.561Z,97906.00
2019-05-06T14:05:19.301Z,97901.00
2019-05-06T14:07:48.691Z,97904.00
2019-05-06T14:10:18.662Z,97890.00
2019-05-06T14:12:49.450Z,97893.00
2019-05-06T14:15:19.246Z,97894.00
2019-05-06T14:17:48.635Z,97887.00
2019-05-06T14:20:18.605Z,97892.00
2019-05-06T14:22:47.981Z,97897.00
2019-05-06T14:25:33.225Z,97874.00
2019-05-06T14:28:19.655Z,97879.00
2019-05-06T14:30:53.437Z,97889.00
2019-05-06T14:33:23.595Z,97890.00
2019-05-06T14:35:53.232Z,97886.00
2019-05-06T14:38:24.690Z,97888.00
2019-05-06T14:41:07.203Z,97876.00
2019-05-06T14:43:32.840Z,97881.00
2019-05-06T14:46:02.639Z,97872.00
2019-05-06T14:48:33.328Z,97875.00
2019-05-06T14:51:02.717Z,97861.00
2019-05-06T14:53:33.146Z,97855.00
2019-05-06T14:56:08.416Z,97869.00
2019-05-06T14:58:37.893Z,97854.00
2019-05-06T15:01:07.242Z,97857.00
2019-05-06T15:03:36.597Z,97848.00
2019-05-06T15:06:05.996Z,97840.00
2019-05-06T15:08:35.356Z,97852.00
2019-05-06T15:11:04.796Z,97849.00
2019-05-06T15:13:34.173Z,97849.00
2019-05-06T15:16:04.374Z,97832.00
2019-05-06T15:18:33.736Z,97854.00
2019-05-06T15:21:29.087Z,97844.00
2019-05-06T15:23:34.537Z,97845.00
2019-05-06T15:26:03.909Z,97838.00
2019-05-06T15:28:33.904Z,97836.00
2019-05-06T15:31:04.990Z,97846.00
2019-05-06T15:33:35.994Z,97842.00
2019-05-06T15:36:07.417Z,97856.00
2019-05-06T15:38:37.109Z,97847.00
2019-05-06T15:41:06.418Z,97850.00
2019-05-06T15:43:35.794Z,97847.00
2019-05-06T15:46:05.304Z,97850.00
2019-05-06T15:48:34.657Z,97843.00
2019-05-06T15:51:04.042Z,97844.00
2019-05-06T15:53:33.393Z,97841.00
2019-05-06T15:56:02.762Z,97835.00
2019-05-06T15:58:32.870Z,97837.00
2019-05-06T16:01:03.184Z,97844.00
2019-05-06T16:03:33.545Z,97835.00
2019-05-06T16:06:03.147Z,97832.00
2019-05-06T16:08:32.502Z,97829.00
2019-05-06T16:11:02.915Z,97831.00
2019-05-06T16:13:32.430Z,97831.00
2019-05-06T16:16:02.917Z,97834.00
2019-05-06T16:18:34.057Z,97837.00
2019-05-06T16:21:03.549Z,97832.00
2019-05-06T16:23:37.645Z,97830.00
2019-05-06T16:26:07.005Z,97825.00
2019-05-06T16:28:36.391Z,97816.00
2019-05-06T16:31:05.764Z,97818.00
2019-05-06T16:33:35.129Z,97823.00
2019-05-06T16:36:05.047Z,97830.00
2019-05-06T16:38:34.394Z,97812.00
2019-05-06T16:41:12.713Z,97828.00
2019-05-06T16:43:34.867Z,97826.00
2019-05-06T16:46:04.292Z,97817.00
2019-05-06T16:48:33.647Z,97832.00
2019-05-06T16:51:04.798Z,97824.00
2019-05-06T16:53:35.088Z,97833.00
2019-05-06T16:56:22.703Z,97825.00
2019-05-06T16:58:53.706Z,97832.00
2019-05-06T17:01:23.220Z,97821.00
2019-05-06T17:03:54.251Z,97832.00
2019-05-06T17:06:32.628Z,97842.00
2019-05-06T17:09:16.831Z,97836.00
2019-05-06T17:11:34.606Z,97844.00
2019-05-06T17:14:04.698Z,97844.00
2019-05-06T17:16:35.271Z,97845.00
2019-05-06T17:19:05.557Z,97847.00
2019-05-06T17:21:35.714Z,97846.00
2019-05-06T17:24:05.171Z,97863.00
2019-05-06T17:26:34.556Z,97868.00
2019-05-06T17:29:08.817Z,97867.00
2019-05-06T17:31:45.936Z,97868.00
2019-05-06T17:34:28.847Z,97869.00
2019-05-06T17:36:59.967Z,97872.00
2019-05-06T17:39:29.330Z,97872.00
2019-05-06T17:41:58.767Z,97883.00
2019-05-06T17:44:28.159Z,97880.00
2019-05-06T17:47:02.765Z,97888.00
2019-05-06T17:49:33.920Z,97884.00
2019-05-06T17:52:16.995Z,97882.00
2019-05-06T17:54:46.387Z,97895.00
2019-05-06T17:57:15.938Z,97879.00
2019-05-06T17:59:46.186Z,97876.00
2019-05-06T18:02:20.021Z,97887.00
2019-05-06T18:04:49.382Z,97888.00
2019-05-06T18:07:18.745Z,97870.00
2019-05-06T18:09:48.574Z,97876.00
2019-05-06T18:12:17.965Z,97884.00
2019-05-06T18:14:47.399Z,97883.00
2019-05-06T18:17:16.780Z,97881.00
2019-05-06T18:19:46.435Z,97877.00
2019-05-06T18:22:15.808Z,97885.00
2019-05-06T18:24:45.206Z,97874.00
2019-05-06T18:27:14.569Z,97886.00
2019-05-06T18:29:43.931Z,97893.00
2019-05-06T18:32:13.351Z,97875.00
2019-05-06T18:34:42.719Z,97888.00
2019-05-06T18:37:12.844Z,97875.00
2019-05-06T18:39:42.661Z,97871.00
2019-05-06T18:42:19.067Z,97872.00
2019-05-06T18:44:43.162Z,97876.00
2019-05-06T18:47:12.561Z,97873.00
2019-05-06T18:49:42.674Z,97866.00
2019-05-06T18:52:13.202Z,97880.00
2019-05-06T18:54:43.918Z,97871.00
2019-05-06T18:57:13.279Z,97864.00
2019-05-06T18:59:42.792Z,97872.00
2019-05-06T19:02:13.115Z,97870.00
2019-05-06T19:04:53.526Z,97870.00
2019-05-06T19:07:22.930Z,97872.00
2019-05-06T19:09:57.034Z,97875.00
2019-05-06T19:12:31.652Z,97872.00
2019-05-06T19:14:57.904Z,97860.00
2019-05-06T19:17:27.276Z,97869.00
2019-05-06T19:19:56.649Z,97877.00
2019-05-06T19:22:26.040Z,97874.00
2019-05-06T19:24:55.410Z,97886.00
2019-05-06T19:27:25.106Z,97874.00
2019-05-06T19:29:54.792Z,97874.00
2019-05-06T19:32:25.351Z,97878.00
2019-05-06T19:34:54.786Z,97872.00
2019-05-06T19:37:24.206Z,97876.00
2019-05-06T19:39:53.565Z,97875.00
2019-05-06T19:42:22.928Z,97878.00
2019-05-06T19:44:52.834Z,97872.00
2019-05-06T19:47:22.496Z,97871.00
2019-05-06T19:49:53.215Z,97880.00
2019-05-06T19:52:25.000Z,97883.00
2019-05-06T19:54:53.900Z,97870.00
2019-05-06T19:57:23.278Z,97882.00
2019-05-06T19:59:52.718Z,97877.00
2019-05-06T20:02:25.134Z,97888.00
2019-05-06T20:04:54.812Z,97872.00
2019-05-06T20:07:37.823Z,97867.00
2019-05-06T20:10:15.318Z,97866.00
2019-05-06T20:13:01.115Z,97868.00
2019-05-06T20:15:33.808Z,97867.00
2019-05-06T20:18:04.461Z,97879.00
2019-05-06T20:20:35.193Z,97877.00
2019-05-06T20:23:05.420Z,97882.00
2019-05-06T20:25:37.067Z,97870.00
2019-05-06T20:28:06.760Z,97869.00
2019-05-06T20:30:36.171Z,97878.00
2019-05-06T20:33:05.632Z,97869.00
2019-05-06T20:35:35.001Z,97858.00
2019-05-06T20:38:04.700Z,97863.00
2019-05-06T20:40:34.119Z,97873.00
2019-05-06T20:43:16.190Z,97866.00
2019-05-06T20:45:35.461Z,97867.00
2019-05-06T20:48:05.076Z,97861.00
2019-05-06T20:50:34.447Z,97861.00
2019-05-06T20:53:03.853Z,97865.00
2019-05-06T20:55:35.768Z,97875.00
2019-05-06T20:58:05.181Z,97879.00
2019-05-06T21:00:34.560Z,97876.00
2019-05-06T21:03:03.954Z,97887.00
2019-05-06T21:05:33.354Z,97881.00
2019-05-06T21:08:02.737Z,97881.00
2019-05-06T21:10:32.986Z,97881.00
2019-05-06T21:13:02.608Z,97887.00
2019-05-06T21:15:32.575Z,97876.00
2019-05-06T21:18:04.241Z,97879.00
2019-05-06T21:20:33.265Z,97869.00
2019-05-06T21:23:02.613Z,97878.00
2019-05-06T21:25:32.249Z,97871.00
2019-05-06T21:28:02.806Z,97867.00
2019-05-06T21:30:32.567Z,97858.00
2019-05-06T21:33:02.180Z,97879.00
2019-05-06T21:35:33.145Z,97871.00
2019-05-06T21:38:02.822Z,97876.00
2019-05-06T21:40:32.471Z,97874.00
2019-05-06T21:43:02.342Z,97874.00
2019-05-06T21:45:33.147Z,97874.00
2019-05-06T21:48:03.079Z,97862.00
2019-05-06T21:50:33.230Z,97850.00
2019-05-06T21:53:03.360Z,97863.00
2019-05-06T21:55:32.787Z,97860.00
2019-05-06T21:58:02.474Z,97854.00
2019-05-06T22:00:34.496Z,97846.00
2019-05-06T22:03:03.876Z,97858.00
2019-05-06T22:05:33.246Z,97857.00
2019-05-06T22:08:02.625Z,97860.00
2019-05-06T22:10:32.578Z,97850.00
2019-05-06T22:13:01.948Z,97846.00
2019-05-06T22:15:32.423Z,97852.00
2019-05-06T22:18:02.549Z,97845.00
2019-05-06T22:20:33.679Z,97850.00
2019-05-06T22:23:03.063Z,97857.00
2019-05-06T22:25:32.708Z,97850.00
2019-05-06T22:28:02.514Z,97855.00
2019-05-06T22:30:32.857Z,97854.00
2019-05-06T22:33:03.632Z,97847.00
2019-05-06T22:35:34.024Z,97855.00
2019-05-06T22:38:03.403Z,97858.00
2019-05-06T22:40:33.249Z,97845.00
2019-05-06T22:43:03.223Z,97857.00
2019-05-06T22:45:33.056Z,97848.00
2019-05-06T22:48:04.479Z,97845.00
2019-05-06T22:50:33.538Z,97844.00
2019-05-06T22:53:02.888Z,97846.00
2019-05-06T22:55:32.951Z,97858.00
2019-05-06T22:58:02.607Z,97848.00
2019-05-06T23:00:33.599Z,97844.00
2019-05-06T23:03:04.688Z,97849.00
2019-05-06T23:05:34.055Z,97847.00
2019-05-06T23:08:03.429Z,97837.00
2019-05-06T23:10:33.757Z,97844.00
2019-05-06T23:13:03.262Z,97843.00
2019-05-06T23:15:34.171Z,97846.00
2019-05-06T23:18:03.691Z,97844.00
2019-05-06T23:20:33.050Z,97854.00
2019-05-06T23:23:04.755Z,97844.00
2019-05-06T23:25:33.591Z,97841.00
2019-05-06T23:28:02.968Z,97848.00
2019-05-06T23:30:33.404Z,97850.00
2019-05-06T23:33:02.968Z,97838.00
2019-05-06T23:35:32.346Z,97842.00
2019-05-06T23:38:57.765Z,97841.00
2019-05-06T23:42:22.800Z,97852.00
2019-05-06T23:45:47.162Z,97848.00
2019-05-06T23:49:13.002Z,97846.00
2019-05-06T23:52:37.480Z,97841.00
2019-05-06T23:56:02.838Z,97834.00
2019-05-06T23:58:32.425Z,97837.00
